sensor_id;sensor_type;location;lat;lon;timestamp;P1;durP1;ratioP1;P2;durP2;ratioP2
23410;SDS011;11878;51.774;7.220;2022-09-12T00:02:18;5.60;;;3.77;;
23410;SDS011;11878;51.774;7.220;2022-09-12T00:05:20;4.83;;;3.33;;
23410;SDS011;11878;51.774;7.220;2022-09-12T00:08:22;7.33;;;3.57;;
23410;SDS011;11878;51.774;7.220;2022-09-12T00:11:24;5.70;;;3.43;;
23410;SDS011;11878;51.774;7.220;2022-09-12T00:14:26;5.53;;;3.53;;
23410;SDS011;11878;51.774;7.220;2022-09-12T00:17:28;4.53;;;3.03;;
23410;SDS011;11878;51.774;7.220;2022-09-12T00:20:30;4.30;;;2.77;;
23410;SDS011;11878;51.774;7.220;2022-09-12T00:23:31;3.90;;;2.70;;
23410;SDS011;11878;51.774;7.220;2022-09-12T00:26:33;4.73;;;2.97;;
23410;SDS011;11878;51.774;7.220;2022-09-12T00:29:36;6.90;;;3.37;;
23410;SDS011;11878;51.774;7.220;2022-09-12T00:32:37;4.87;;;3.20;;
23410;SDS011;11878;51.774;7.220;2022-09-12T00:35:43;5.13;;;2.87;;
23410;SDS011;11878;51.774;7.220;2022-09-12T00:38:47;4.83;;;3.47;;
23410;SDS011;11878;51.774;7.220;2022-09-12T00:41:49;7.23;;;3.67;;
23410;SDS011;11878;51.774;7.220;2022-09-12T00:44:51;7.90;;;2.97;;
23410;SDS011;11878;51.774;7.220;2022-09-12T00:47:54;5.27;;;3.40;;
23410;SDS011;11878;51.774;7.220;2022-09-12T00:51:01;7.43;;;3.23;;
23410;SDS011;11878;51.774;7.220;2022-09-12T00:54:04;4.87;;;3.10;;
23410;SDS011;11878;51.774;7.220;2022-09-12T00:57:09;5.70;;;3.40;;
23410;SDS011;11878;51.774;7.220;2022-09-12T01:00:14;4.90;;;3.17;;
23410;SDS011;11878;51.774;7.220;2022-09-12T01:03:19;5.07;;;2.90;;
23410;SDS011;11878;51.774;7.220;2022-09-12T01:06:28;11.00;;;2.93;;
23410;SDS011;11878;51.774;7.220;2022-09-12T01:09:35;6.00;;;3.40;;
23410;SDS011;11878;51.774;7.220;2022-09-12T01:12:38;4.40;;;2.63;;
23410;SDS011;11878;51.774;7.220;2022-09-12T01:15:42;5.17;;;2.53;;
23410;SDS011;11878;51.774;7.220;2022-09-12T01:22:10;4.30;;;3.00;;
23410;SDS011;11878;51.774;7.220;2022-09-12T01:38:57;3.97;;;2.70;;
23410;SDS011;11878;51.774;7.220;2022-09-12T01:48:19;6.67;;;3.80;;
23410;SDS011;11878;51.774;7.220;2022-09-12T01:51:30;6.87;;;3.60;;
23410;SDS011;11878;51.774;7.220;2022-09-12T01:54:43;7.63;;;5.13;;
23410;SDS011;11878;51.774;7.220;2022-09-12T01:58:04;5.87;;;3.53;;
23410;SDS011;11878;51.774;7.220;2022-09-12T02:01:26;8.10;;;4.40;;
23410;SDS011;11878;51.774;7.220;2022-09-12T02:04:33;6.50;;;3.60;;
23410;SDS011;11878;51.774;7.220;2022-09-12T02:07:43;5.87;;;3.30;;
23410;SDS011;11878;51.774;7.220;2022-09-12T02:11:02;11.30;;;3.80;;
23410;SDS011;11878;51.774;7.220;2022-09-12T02:14:11;5.13;;;3.40;;
23410;SDS011;11878;51.774;7.220;2022-09-12T02:17:18;6.43;;;3.47;;
23410;SDS011;11878;51.774;7.220;2022-09-12T02:20:24;7.40;;;3.83;;
23410;SDS011;11878;51.774;7.220;2022-09-12T02:23:50;5.73;;;3.70;;
23410;SDS011;11878;51.774;7.220;2022-09-12T02:27:02;5.60;;;3.20;;
23410;SDS011;11878;51.774;7.220;2022-09-12T02:30:11;4.50;;;2.93;;
23410;SDS011;11878;51.774;7.220;2022-09-12T02:33:23;6.27;;;3.00;;
23410;SDS011;11878;51.774;7.220;2022-09-12T02:39:44;5.50;;;3.13;;
23410;SDS011;11878;51.774;7.220;2022-09-12T02:42:47;5.23;;;2.97;;
23410;SDS011;11878;51.774;7.220;2022-09-12T02:45:49;6.47;;;3.47;;
23410;SDS011;11878;51.774;7.220;2022-09-12T02:48:51;8.40;;;3.47;;
23410;SDS011;11878;51.774;7.220;2022-09-12T02:51:54;7.63;;;3.67;;
23410;SDS011;11878;51.774;7.220;2022-09-12T02:54:56;5.90;;;3.00;;
23410;SDS011;11878;51.774;7.220;2022-09-12T02:58:01;7.50;;;3.67;;
23410;SDS011;11878;51.774;7.220;2022-09-12T03:01:26;6.60;;;4.20;;
23410;SDS011;11878;51.774;7.220;2022-09-12T03:18:19;8.47;;;4.47;;
23410;SDS011;11878;51.774;7.220;2022-09-12T03:27:39;8.47;;;4.43;;
23410;SDS011;11878;51.774;7.220;2022-09-12T03:30:49;9.73;;;4.87;;
23410;SDS011;11878;51.774;7.220;2022-09-12T03:33:53;11.23;;;5.60;;
23410;SDS011;11878;51.774;7.220;2022-09-12T03:36:55;9.80;;;5.30;;
23410;SDS011;11878;51.774;7.220;2022-09-12T03:39:57;9.13;;;5.47;;
23410;SDS011;11878;51.774;7.220;2022-09-12T03:42:58;12.17;;;5.73;;
23410;SDS011;11878;51.774;7.220;2022-09-12T03:46:00;13.50;;;5.77;;
23410;SDS011;11878;51.774;7.220;2022-09-12T03:49:02;9.57;;;5.40;;
23410;SDS011;11878;51.774;7.220;2022-09-12T03:52:04;11.83;;;5.27;;
23410;SDS011;11878;51.774;7.220;2022-09-12T03:55:06;9.20;;;5.13;;
23410;SDS011;11878;51.774;7.220;2022-09-12T03:58:07;10.93;;;6.13;;
23410;SDS011;11878;51.774;7.220;2022-09-12T04:01:10;8.90;;;5.27;;
23410;SDS011;11878;51.774;7.220;2022-09-12T04:04:14;11.70;;;5.80;;
23410;SDS011;11878;51.774;7.220;2022-09-12T04:07:16;18.03;;;6.80;;
23410;SDS011;11878;51.774;7.220;2022-09-12T04:10:18;12.40;;;6.63;;
23410;SDS011;11878;51.774;7.220;2022-09-12T04:13:20;11.17;;;6.63;;
23410;SDS011;11878;51.774;7.220;2022-09-12T04:16:21;11.70;;;6.37;;
23410;SDS011;11878;51.774;7.220;2022-09-12T04:19:24;8.77;;;5.27;;
23410;SDS011;11878;51.774;7.220;2022-09-12T04:22:26;14.57;;;6.40;;
23410;SDS011;11878;51.774;7.220;2022-09-12T04:25:29;10.97;;;6.63;;
23410;SDS011;11878;51.774;7.220;2022-09-12T04:28:32;10.93;;;6.37;;
23410;SDS011;11878;51.774;7.220;2022-09-12T04:31:36;13.63;;;7.17;;
23410;SDS011;11878;51.774;7.220;2022-09-12T04:34:38;11.57;;;6.40;;
23410;SDS011;11878;51.774;7.220;2022-09-12T04:37:40;13.03;;;7.30;;
23410;SDS011;11878;51.774;7.220;2022-09-12T04:40:41;13.77;;;7.23;;
23410;SDS011;11878;51.774;7.220;2022-09-12T04:43:43;10.60;;;6.13;;
23410;SDS011;11878;51.774;7.220;2022-09-12T04:46:49;17.80;;;6.63;;
23410;SDS011;11878;51.774;7.220;2022-09-12T04:49:50;11.17;;;7.13;;
23410;SDS011;11878;51.774;7.220;2022-09-12T04:52:52;13.13;;;6.40;;
23410;SDS011;11878;51.774;7.220;2022-09-12T04:55:54;11.20;;;6.33;;
23410;SDS011;11878;51.774;7.220;2022-09-12T04:58:56;10.33;;;5.93;;
23410;SDS011;11878;51.774;7.220;2022-09-12T05:02:00;11.40;;;5.93;;
23410;SDS011;11878;51.774;7.220;2022-09-12T05:05:02;10.13;;;5.97;;
23410;SDS011;11878;51.774;7.220;2022-09-12T05:08:04;13.33;;;5.70;;
23410;SDS011;11878;51.774;7.220;2022-09-12T05:11:08;8.17;;;5.63;;
23410;SDS011;11878;51.774;7.220;2022-09-12T05:14:12;9.10;;;5.60;;
23410;SDS011;11878;51.774;7.220;2022-09-12T05:17:14;11.07;;;6.60;;
23410;SDS011;11878;51.774;7.220;2022-09-12T05:20:17;10.80;;;5.87;;
23410;SDS011;11878;51.774;7.220;2022-09-12T05:23:19;10.23;;;6.43;;
23410;SDS011;11878;51.774;7.220;2022-09-12T05:26:22;8.20;;;5.10;;
23410;SDS011;11878;51.774;7.220;2022-09-12T05:29:24;10.07;;;6.33;;
23410;SDS011;11878;51.774;7.220;2022-09-12T05:32:29;10.90;;;5.93;;
23410;SDS011;11878;51.774;7.220;2022-09-12T05:35:31;9.13;;;5.03;;
23410;SDS011;11878;51.774;7.220;2022-09-12T05:38:33;7.10;;;5.17;;
23410;SDS011;11878;51.774;7.220;2022-09-12T05:41:35;8.20;;;5.13;;
23410;SDS011;11878;51.774;7.220;2022-09-12T05:44:37;11.00;;;6.67;;
23410;SDS011;11878;51.774;7.220;2022-09-12T05:47:39;13.77;;;6.73;;
23410;SDS011;11878;51.774;7.220;2022-09-12T05:50:42;11.00;;;6.90;;
23410;SDS011;11878;51.774;7.220;2022-09-12T05:53:44;11.97;;;7.07;;
23410;SDS011;11878;51.774;7.220;2022-09-12T05:56:47;13.80;;;8.03;;
23410;SDS011;11878;51.774;7.220;2022-09-12T05:59:49;15.13;;;8.10;;
23410;SDS011;11878;51.774;7.220;2022-09-12T06:02:51;13.93;;;7.80;;
23410;SDS011;11878;51.774;7.220;2022-09-12T06:05:53;11.87;;;7.13;;
23410;SDS011;11878;51.774;7.220;2022-09-12T06:08:59;12.00;;;7.03;;
23410;SDS011;11878;51.774;7.220;2022-09-12T06:12:02;14.03;;;7.50;;
23410;SDS011;11878;51.774;7.220;2022-09-12T06:15:04;16.77;;;9.03;;
23410;SDS011;11878;51.774;7.220;2022-09-12T06:18:06;15.73;;;8.67;;
23410;SDS011;11878;51.774;7.220;2022-09-12T06:21:09;14.30;;;8.17;;
23410;SDS011;11878;51.774;7.220;2022-09-12T06:24:12;13.47;;;8.90;;
23410;SDS011;11878;51.774;7.220;2022-09-12T06:27:14;15.40;;;7.93;;
23410;SDS011;11878;51.774;7.220;2022-09-12T06:30:16;16.73;;;8.70;;
23410;SDS011;11878;51.774;7.220;2022-09-12T06:33:22;14.50;;;9.13;;
23410;SDS011;11878;51.774;7.220;2022-09-12T06:36:26;14.73;;;8.57;;
23410;SDS011;11878;51.774;7.220;2022-09-12T06:39:29;13.73;;;8.47;;
23410;SDS011;11878;51.774;7.220;2022-09-12T06:42:32;13.87;;;8.23;;
23410;SDS011;11878;51.774;7.220;2022-09-12T06:45:34;15.37;;;8.90;;
23410;SDS011;11878;51.774;7.220;2022-09-12T06:48:36;19.47;;;9.43;;
23410;SDS011;11878;51.774;7.220;2022-09-12T06:51:42;13.90;;;7.27;;
23410;SDS011;11878;51.774;7.220;2022-09-12T06:54:44;14.97;;;8.33;;
23410;SDS011;11878;51.774;7.220;2022-09-12T06:57:47;16.23;;;8.80;;
23410;SDS011;11878;51.774;7.220;2022-09-12T07:00:49;16.53;;;8.37;;
23410;SDS011;11878;51.774;7.220;2022-09-12T07:03:57;14.10;;;8.37;;
23410;SDS011;11878;51.774;7.220;2022-09-12T07:07:00;15.00;;;8.80;;
23410;SDS011;11878;51.774;7.220;2022-09-12T07:10:02;13.07;;;8.00;;
23410;SDS011;11878;51.774;7.220;2022-09-12T07:13:04;14.23;;;8.50;;
23410;SDS011;11878;51.774;7.220;2022-09-12T07:16:05;14.73;;;8.53;;
23410;SDS011;11878;51.774;7.220;2022-09-12T07:19:08;16.20;;;8.87;;
23410;SDS011;11878;51.774;7.220;2022-09-12T07:22:10;12.97;;;8.17;;
23410;SDS011;11878;51.774;7.220;2022-09-12T07:25:12;15.50;;;8.57;;
23410;SDS011;11878;51.774;7.220;2022-09-12T07:28:14;13.07;;;8.33;;
23410;SDS011;11878;51.774;7.220;2022-09-12T07:31:16;16.63;;;8.97;;
23410;SDS011;11878;51.774;7.220;2022-09-12T07:34:19;18.50;;;8.50;;
23410;SDS011;11878;51.774;7.220;2022-09-12T07:37:21;13.80;;;8.20;;
23410;SDS011;11878;51.774;7.220;2022-09-12T07:40:22;16.83;;;9.40;;
23410;SDS011;11878;51.774;7.220;2022-09-12T07:43:24;15.43;;;8.87;;
23410;SDS011;11878;51.774;7.220;2022-09-12T07:46:26;15.03;;;8.43;;
23410;SDS011;11878;51.774;7.220;2022-09-12T07:49:29;14.50;;;8.03;;
23410;SDS011;11878;51.774;7.220;2022-09-12T07:52:31;14.30;;;7.87;;
23410;SDS011;11878;51.774;7.220;2022-09-12T07:55:33;13.97;;;8.27;;
23410;SDS011;11878;51.774;7.220;2022-09-12T07:58:35;14.67;;;8.43;;
23410;SDS011;11878;51.774;7.220;2022-09-12T08:01:38;15.43;;;9.03;;
23410;SDS011;11878;51.774;7.220;2022-09-12T08:04:40;13.50;;;8.70;;
23410;SDS011;11878;51.774;7.220;2022-09-12T08:07:42;14.90;;;8.17;;
23410;SDS011;11878;51.774;7.220;2022-09-12T08:10:44;16.00;;;7.87;;
23410;SDS011;11878;51.774;7.220;2022-09-12T08:13:46;12.90;;;8.50;;
23410;SDS011;11878;51.774;7.220;2022-09-12T08:16:55;13.30;;;7.90;;
23410;SDS011;11878;51.774;7.220;2022-09-12T08:19:56;15.70;;;8.43;;
23410;SDS011;11878;51.774;7.220;2022-09-12T08:31:41;13.97;;;7.87;;
23410;SDS011;11878;51.774;7.220;2022-09-12T08:34:43;16.23;;;8.93;;
23410;SDS011;11878;51.774;7.220;2022-09-12T08:37:45;21.50;;;9.47;;
23410;SDS011;11878;51.774;7.220;2022-09-12T08:45:35;15.80;;;9.00;;
23410;SDS011;11878;51.774;7.220;2022-09-12T08:48:44;21.37;;;9.20;;
23410;SDS011;11878;51.774;7.220;2022-09-12T08:51:46;17.77;;;8.57;;
23410;SDS011;11878;51.774;7.220;2022-09-12T08:54:48;15.87;;;8.83;;
23410;SDS011;11878;51.774;7.220;2022-09-12T08:57:50;14.63;;;8.10;;
23410;SDS011;11878;51.774;7.220;2022-09-12T09:07:32;13.90;;;8.90;;
23410;SDS011;11878;51.774;7.220;2022-09-12T09:17:28;16.93;;;9.63;;
23410;SDS011;11878;51.774;7.220;2022-09-12T09:20:43;16.63;;;8.93;;
23410;SDS011;11878;51.774;7.220;2022-09-12T09:23:57;15.77;;;8.80;;
23410;SDS011;11878;51.774;7.220;2022-09-12T09:30:35;17.03;;;9.63;;
23410;SDS011;11878;51.774;7.220;2022-09-12T09:33:37;15.77;;;9.70;;
23410;SDS011;11878;51.774;7.220;2022-09-12T09:36:49;16.90;;;8.43;;
23410;SDS011;11878;51.774;7.220;2022-09-12T09:43:21;13.00;;;8.40;;
23410;SDS011;11878;51.774;7.220;2022-09-12T09:46:24;16.67;;;8.23;;
23410;SDS011;11878;51.774;7.220;2022-09-12T09:49:28;13.87;;;8.20;;
23410;SDS011;11878;51.774;7.220;2022-09-12T09:52:33;17.60;;;8.93;;
23410;SDS011;11878;51.774;7.220;2022-09-12T09:55:37;15.53;;;8.03;;
23410;SDS011;11878;51.774;7.220;2022-09-12T09:58:42;19.03;;;9.77;;
23410;SDS011;11878;51.774;7.220;2022-09-12T10:01:48;18.73;;;9.07;;
23410;SDS011;11878;51.774;7.220;2022-09-12T10:04:55;15.40;;;8.73;;
23410;SDS011;11878;51.774;7.220;2022-09-12T10:07:58;18.40;;;10.03;;
23410;SDS011;11878;51.774;7.220;2022-09-12T10:11:05;16.80;;;8.40;;
23410;SDS011;11878;51.774;7.220;2022-09-12T10:17:44;12.83;;;8.43;;
23410;SDS011;11878;51.774;7.220;2022-09-12T10:20:48;13.67;;;7.60;;
23410;SDS011;11878;51.774;7.220;2022-09-12T10:23:51;13.13;;;6.68;;
23410;SDS011;11878;51.774;7.220;2022-09-12T10:30:17;13.05;;;7.22;;
23410;SDS011;11878;51.774;7.220;2022-09-12T10:33:20;17.63;;;8.57;;
23410;SDS011;11878;51.774;7.220;2022-09-12T10:36:34;13.65;;;7.03;;
23410;SDS011;11878;51.774;7.220;2022-09-12T10:39:38;10.40;;;6.47;;
23410;SDS011;11878;51.774;7.220;2022-09-12T10:45:56;12.05;;;6.47;;
23410;SDS011;11878;51.774;7.220;2022-09-12T10:49:13;9.38;;;6.03;;
23410;SDS011;11878;51.774;7.220;2022-09-12T10:52:24;9.88;;;5.53;;
23410;SDS011;11878;51.774;7.220;2022-09-12T10:55:28;9.18;;;5.85;;
23410;SDS011;11878;51.774;7.220;2022-09-12T10:58:41;9.13;;;5.32;;
23410;SDS011;11878;51.774;7.220;2022-09-12T11:12:23;10.25;;;4.85;;
23410;SDS011;11878;51.774;7.220;2022-09-12T11:15:44;8.18;;;5.13;;
23410;SDS011;11878;51.774;7.220;2022-09-12T11:34:42;8.57;;;3.43;;
23410;SDS011;11878;51.774;7.220;2022-09-12T11:45:12;6.97;;;2.80;;
23410;SDS011;11878;51.774;7.220;2022-09-12T11:58:03;6.05;;;2.63;;
23410;SDS011;11878;51.774;7.220;2022-09-12T12:01:12;7.67;;;3.20;;
23410;SDS011;11878;51.774;7.220;2022-09-12T12:04:19;3.97;;;2.60;;
23410;SDS011;11878;51.774;7.220;2022-09-12T12:07:29;6.23;;;2.40;;
23410;SDS011;11878;51.774;7.220;2022-09-12T12:10:53;4.05;;;2.22;;
23410;SDS011;11878;51.774;7.220;2022-09-12T12:14:16;6.38;;;2.30;;
23410;SDS011;11878;51.774;7.220;2022-09-12T12:17:20;3.65;;;2.03;;
23410;SDS011;11878;51.774;7.220;2022-09-12T12:20:24;3.63;;;2.37;;
23410;SDS011;11878;51.774;7.220;2022-09-12T12:23:31;3.35;;;1.92;;
23410;SDS011;11878;51.774;7.220;2022-09-12T12:29:43;3.13;;;1.97;;
23410;SDS011;11878;51.774;7.220;2022-09-12T12:32:44;3.33;;;1.90;;
23410;SDS011;11878;51.774;7.220;2022-09-12T12:36:08;3.70;;;2.28;;
23410;SDS011;11878;51.774;7.220;2022-09-12T12:52:00;2.78;;;1.63;;
23410;SDS011;11878;51.774;7.220;2022-09-12T12:55:02;3.53;;;1.75;;
23410;SDS011;11878;51.774;7.220;2022-09-12T12:58:05;2.90;;;1.33;;
23410;SDS011;11878;51.774;7.220;2022-09-12T13:01:21;2.63;;;1.52;;
23410;SDS011;11878;51.774;7.220;2022-09-12T13:04:25;4.00;;;1.55;;
23410;SDS011;11878;51.774;7.220;2022-09-12T13:07:39;4.00;;;1.70;;
23410;SDS011;11878;51.774;7.220;2022-09-12T13:10:47;2.60;;;1.92;;
23410;SDS011;11878;51.774;7.220;2022-09-12T13:14:00;3.10;;;1.90;;
23410;SDS011;11878;51.774;7.220;2022-09-12T13:17:05;4.50;;;1.83;;
23410;SDS011;11878;51.774;7.220;2022-09-12T13:20:18;5.18;;;1.70;;
23410;SDS011;11878;51.774;7.220;2022-09-12T13:23:29;2.08;;;1.30;;
23410;SDS011;11878;51.774;7.220;2022-09-12T13:26:33;3.83;;;1.75;;
23410;SDS011;11878;51.774;7.220;2022-09-12T13:29:40;2.75;;;1.60;;
23410;SDS011;11878;51.774;7.220;2022-09-12T13:32:42;4.88;;;1.80;;
23410;SDS011;11878;51.774;7.220;2022-09-12T13:39:28;3.17;;;1.73;;
23410;SDS011;11878;51.774;7.220;2022-09-12T13:42:38;2.38;;;1.73;;
23410;SDS011;11878;51.774;7.220;2022-09-12T13:45:43;2.67;;;1.33;;
23410;SDS011;11878;51.774;7.220;2022-09-12T13:48:47;4.32;;;1.70;;
23410;SDS011;11878;51.774;7.220;2022-09-12T13:51:57;4.38;;;1.20;;
23410;SDS011;11878;51.774;7.220;2022-09-12T13:55:14;2.60;;;1.63;;
23410;SDS011;11878;51.774;7.220;2022-09-12T13:58:26;1.73;;;1.35;;
23410;SDS011;11878;51.774;7.220;2022-09-12T14:02:14;2.65;;;1.40;;
23410;SDS011;11878;51.774;7.220;2022-09-12T14:04:57;2.00;;;1.20;;
23410;SDS011;11878;51.774;7.220;2022-09-12T14:08:12;3.33;;;1.50;;
23410;SDS011;11878;51.774;7.220;2022-09-12T14:11:25;6.00;;;1.50;;
23410;SDS011;11878;51.774;7.220;2022-09-12T14:14:35;4.38;;;1.75;;
23410;SDS011;11878;51.774;7.220;2022-09-12T14:17:46;2.70;;;1.65;;
23410;SDS011;11878;51.774;7.220;2022-09-12T14:20:52;2.55;;;1.65;;
23410;SDS011;11878;51.774;7.220;2022-09-12T14:23:57;2.95;;;1.50;;
23410;SDS011;11878;51.774;7.220;2022-09-12T14:27:00;2.40;;;1.40;;
23410;SDS011;11878;51.774;7.220;2022-09-12T14:30:06;3.83;;;1.77;;
23410;SDS011;11878;51.774;7.220;2022-09-12T14:33:21;2.92;;;1.83;;
23410;SDS011;11878;51.774;7.220;2022-09-12T14:36:30;4.13;;;1.70;;
23410;SDS011;11878;51.774;7.220;2022-09-12T14:39:40;2.00;;;1.48;;
23410;SDS011;11878;51.774;7.220;2022-09-12T14:42:44;2.17;;;1.55;;
23410;SDS011;11878;51.774;7.220;2022-09-12T14:45:53;1.95;;;1.40;;
23410;SDS011;11878;51.774;7.220;2022-09-12T14:49:13;3.85;;;1.55;;
23410;SDS011;11878;51.774;7.220;2022-09-12T14:52:35;5.22;;;1.83;;
23410;SDS011;11878;51.774;7.220;2022-09-12T14:55:41;4.15;;;1.73;;
23410;SDS011;11878;51.774;7.220;2022-09-12T14:58:46;2.95;;;1.77;;
23410;SDS011;11878;51.774;7.220;2022-09-12T15:01:49;2.83;;;1.90;;
23410;SDS011;11878;51.774;7.220;2022-09-12T15:05:13;3.78;;;1.63;;
23410;SDS011;11878;51.774;7.220;2022-09-12T15:08:23;2.13;;;1.70;;
23410;SDS011;11878;51.774;7.220;2022-09-12T15:11:25;1.70;;;1.27;;
23410;SDS011;11878;51.774;7.220;2022-09-12T15:14:27;2.95;;;1.63;;
23410;SDS011;11878;51.774;7.220;2022-09-12T15:17:28;2.10;;;1.77;;
23410;SDS011;11878;51.774;7.220;2022-09-12T15:20:40;4.00;;;1.33;;
23410;SDS011;11878;51.774;7.220;2022-09-12T15:23:46;3.80;;;1.75;;
23410;SDS011;11878;51.774;7.220;2022-09-12T15:26:50;2.15;;;1.38;;
23410;SDS011;11878;51.774;7.220;2022-09-12T15:29:52;2.35;;;1.40;;
23410;SDS011;11878;51.774;7.220;2022-09-12T15:32:53;2.83;;;1.50;;
23410;SDS011;11878;51.774;7.220;2022-09-12T15:35:55;1.55;;;1.23;;
23410;SDS011;11878;51.774;7.220;2022-09-12T15:38:57;2.38;;;1.42;;
23410;SDS011;11878;51.774;7.220;2022-09-12T15:41:59;2.20;;;1.35;;
23410;SDS011;11878;51.774;7.220;2022-09-12T15:45:00;3.60;;;1.42;;
23410;SDS011;11878;51.774;7.220;2022-09-12T15:48:04;4.10;;;1.60;;
23410;SDS011;11878;51.774;7.220;2022-09-12T15:51:09;1.88;;;1.20;;
23410;SDS011;11878;51.774;7.220;2022-09-12T15:54:16;1.52;;;1.17;;
23410;SDS011;11878;51.774;7.220;2022-09-12T15:57:18;2.65;;;1.23;;
23410;SDS011;11878;51.774;7.220;2022-09-12T16:00:20;2.08;;;1.55;;
23410;SDS011;11878;51.774;7.220;2022-09-12T16:06:58;1.85;;;1.20;;
23410;SDS011;11878;51.774;7.220;2022-09-12T16:10:00;1.88;;;1.10;;
23410;SDS011;11878;51.774;7.220;2022-09-12T16:13:02;2.22;;;1.55;;
23410;SDS011;11878;51.774;7.220;2022-09-12T16:16:04;5.35;;;1.77;;
23410;SDS011;11878;51.774;7.220;2022-09-12T16:19:08;3.25;;;1.65;;
23410;SDS011;11878;51.774;7.220;2022-09-12T16:22:10;3.17;;;1.20;;
23410;SDS011;11878;51.774;7.220;2022-09-12T16:25:12;2.22;;;1.50;;
23410;SDS011;11878;51.774;7.220;2022-09-12T16:28:14;1.65;;;1.13;;
23410;SDS011;11878;51.774;7.220;2022-09-12T16:39:58;2.58;;;1.27;;
23410;SDS011;11878;51.774;7.220;2022-09-12T16:42:59;3.05;;;1.90;;
23410;SDS011;11878;51.774;7.220;2022-09-12T16:46:02;2.00;;;1.35;;
23410;SDS011;11878;51.774;7.220;2022-09-12T16:49:18;3.53;;;1.70;;
23410;SDS011;11878;51.774;7.220;2022-09-12T16:52:20;2.97;;;1.50;;
23410;SDS011;11878;51.774;7.220;2022-09-12T16:55:21;2.67;;;1.88;;
23410;SDS011;11878;51.774;7.220;2022-09-12T16:58:23;3.15;;;1.83;;
23410;SDS011;11878;51.774;7.220;2022-09-12T17:01:25;3.35;;;1.83;;
23410;SDS011;11878;51.774;7.220;2022-09-12T17:04:27;3.28;;;1.80;;
23410;SDS011;11878;51.774;7.220;2022-09-12T17:07:29;2.08;;;1.60;;
23410;SDS011;11878;51.774;7.220;2022-09-12T17:10:31;3.65;;;2.00;;
23410;SDS011;11878;51.774;7.220;2022-09-12T17:13:33;2.95;;;1.60;;
23410;SDS011;11878;51.774;7.220;2022-09-12T17:16:57;2.55;;;1.90;;
23410;SDS011;11878;51.774;7.220;2022-09-12T17:29:10;2.08;;;1.65;;
23410;SDS011;11878;51.774;7.220;2022-09-12T17:32:13;2.17;;;1.50;;
23410;SDS011;11878;51.774;7.220;2022-09-12T17:35:17;3.00;;;1.80;;
23410;SDS011;11878;51.774;7.220;2022-09-12T17:38:19;3.25;;;1.60;;
23410;SDS011;11878;51.774;7.220;2022-09-12T17:41:26;4.80;;;2.08;;
23410;SDS011;11878;51.774;7.220;2022-09-12T17:44:31;4.15;;;2.25;;
23410;SDS011;11878;51.774;7.220;2022-09-12T17:47:34;3.35;;;2.17;;
23410;SDS011;11878;51.774;7.220;2022-09-12T17:50:36;4.65;;;1.73;;
23410;SDS011;11878;51.774;7.220;2022-09-12T17:53:40;4.95;;;2.47;;
23410;SDS011;11878;51.774;7.220;2022-09-12T17:56:43;3.33;;;2.00;;
23410;SDS011;11878;51.774;7.220;2022-09-12T17:59:46;3.00;;;1.90;;
23410;SDS011;11878;51.774;7.220;2022-09-12T18:02:48;4.78;;;2.40;;
23410;SDS011;11878;51.774;7.220;2022-09-12T18:05:51;4.32;;;2.20;;
23410;SDS011;11878;51.774;7.220;2022-09-12T18:08:57;5.10;;;2.58;;
23410;SDS011;11878;51.774;7.220;2022-09-12T18:12:01;3.13;;;2.10;;
23410;SDS011;11878;51.774;7.220;2022-09-12T18:15:03;4.47;;;2.20;;
23410;SDS011;11878;51.774;7.220;2022-09-12T18:22:27;4.50;;;2.40;;
23410;SDS011;11878;51.774;7.220;2022-09-12T18:25:28;4.00;;;2.50;;
23410;SDS011;11878;51.774;7.220;2022-09-12T18:28:31;4.25;;;3.17;;
23410;SDS011;11878;51.774;7.220;2022-09-12T18:31:34;5.27;;;3.13;;
23410;SDS011;11878;51.774;7.220;2022-09-12T18:34:36;8.63;;;3.43;;
23410;SDS011;11878;51.774;7.220;2022-09-12T18:37:41;3.28;;;2.20;;
23410;SDS011;11878;51.774;7.220;2022-09-12T18:40:43;5.25;;;2.92;;
23410;SDS011;11878;51.774;7.220;2022-09-12T18:43:45;5.82;;;2.72;;
23410;SDS011;11878;51.774;7.220;2022-09-12T18:46:48;4.87;;;2.73;;
23410;SDS011;11878;51.774;7.220;2022-09-12T18:49:49;5.53;;;2.93;;
23410;SDS011;11878;51.774;7.220;2022-09-12T18:52:51;3.50;;;2.50;;
23410;SDS011;11878;51.774;7.220;2022-09-12T18:56:07;4.17;;;3.00;;
23410;SDS011;11878;51.774;7.220;2022-09-12T18:59:10;4.13;;;3.08;;
23410;SDS011;11878;51.774;7.220;2022-09-12T19:02:15;6.27;;;2.83;;
23410;SDS011;11878;51.774;7.220;2022-09-12T19:05:17;5.93;;;2.50;;
23410;SDS011;11878;51.774;7.220;2022-09-12T19:08:18;6.57;;;2.60;;
23410;SDS011;11878;51.774;7.220;2022-09-12T19:11:20;5.97;;;2.80;;
23410;SDS011;11878;51.774;7.220;2022-09-12T19:14:23;6.00;;;3.20;;
23410;SDS011;11878;51.774;7.220;2022-09-12T19:17:26;4.90;;;3.00;;
23410;SDS011;11878;51.774;7.220;2022-09-12T19:20:28;4.43;;;2.63;;
23410;SDS011;11878;51.774;7.220;2022-09-12T19:23:30;4.53;;;2.80;;
23410;SDS011;11878;51.774;7.220;2022-09-12T19:26:33;4.43;;;3.03;;
23410;SDS011;11878;51.774;7.220;2022-09-12T19:29:36;3.93;;;2.77;;
23410;SDS011;11878;51.774;7.220;2022-09-12T19:32:37;5.87;;;2.80;;
23410;SDS011;11878;51.774;7.220;2022-09-12T19:35:39;4.47;;;2.63;;
23410;SDS011;11878;51.774;7.220;2022-09-12T19:38:41;4.27;;;2.67;;
23410;SDS011;11878;51.774;7.220;2022-09-12T19:41:42;6.70;;;2.92;;
23410;SDS011;11878;51.774;7.220;2022-09-12T19:44:44;13.03;;;3.37;;
23410;SDS011;11878;51.774;7.220;2022-09-12T19:47:46;8.37;;;3.37;;
23410;SDS011;11878;51.774;7.220;2022-09-12T19:50:48;3.60;;;2.63;;
23410;SDS011;11878;51.774;7.220;2022-09-12T19:53:50;6.10;;;2.87;;
23410;SDS011;11878;51.774;7.220;2022-09-12T19:56:52;6.17;;;2.87;;
23410;SDS011;11878;51.774;7.220;2022-09-12T19:59:54;4.77;;;3.10;;
23410;SDS011;11878;51.774;7.220;2022-09-12T20:02:56;5.40;;;3.00;;
23410;SDS011;11878;51.774;7.220;2022-09-12T20:06:01;8.97;;;3.07;;
23410;SDS011;11878;51.774;7.220;2022-09-12T20:09:07;4.47;;;3.13;;
23410;SDS011;11878;51.774;7.220;2022-09-12T20:12:09;4.37;;;3.10;;
23410;SDS011;11878;51.774;7.220;2022-09-12T20:15:11;4.23;;;3.23;;
23410;SDS011;11878;51.774;7.220;2022-09-12T20:18:12;4.23;;;3.17;;
23410;SDS011;11878;51.774;7.220;2022-09-12T20:21:15;4.90;;;3.20;;
23410;SDS011;11878;51.774;7.220;2022-09-12T20:29:06;4.47;;;3.27;;
23410;SDS011;11878;51.774;7.220;2022-09-12T20:32:08;4.63;;;2.97;;
23410;SDS011;11878;51.774;7.220;2022-09-12T20:35:10;7.13;;;3.27;;
23410;SDS011;11878;51.774;7.220;2022-09-12T20:38:12;3.63;;;2.57;;
23410;SDS011;11878;51.774;7.220;2022-09-12T20:41:13;4.80;;;3.13;;
23410;SDS011;11878;51.774;7.220;2022-09-12T20:44:15;6.70;;;3.10;;
23410;SDS011;11878;51.774;7.220;2022-09-12T20:47:17;3.83;;;2.73;;
23410;SDS011;11878;51.774;7.220;2022-09-12T20:50:19;8.03;;;3.20;;
23410;SDS011;11878;51.774;7.220;2022-09-12T20:53:21;3.60;;;2.70;;
23410;SDS011;11878;51.774;7.220;2022-09-12T20:56:23;5.37;;;3.53;;
23410;SDS011;11878;51.774;7.220;2022-09-12T20:59:26;4.97;;;3.30;;
23410;SDS011;11878;51.774;7.220;2022-09-12T21:02:28;5.87;;;3.40;;
23410;SDS011;11878;51.774;7.220;2022-09-12T21:05:30;5.87;;;3.40;;
23410;SDS011;11878;51.774;7.220;2022-09-12T21:08:32;4.33;;;3.23;;
23410;SDS011;11878;51.774;7.220;2022-09-12T21:11:34;6.17;;;3.20;;
23410;SDS011;11878;51.774;7.220;2022-09-12T21:14:36;5.60;;;3.70;;
23410;SDS011;11878;51.774;7.220;2022-09-12T21:17:37;5.17;;;3.37;;
23410;SDS011;11878;51.774;7.220;2022-09-12T21:20:39;5.37;;;3.80;;
23410;SDS011;11878;51.774;7.220;2022-09-12T21:23:41;5.03;;;3.43;;
23410;SDS011;11878;51.774;7.220;2022-09-12T21:26:43;10.93;;;3.23;;
23410;SDS011;11878;51.774;7.220;2022-09-12T21:29:44;3.87;;;3.00;;
23410;SDS011;11878;51.774;7.220;2022-09-12T21:32:46;5.27;;;2.80;;